Time;durP1;ratioP1;P1;durP2;ratioP2;P2;SDS_P1;SDS_P2;PMS_P1;PMS_P2;Temp;Humidity;BMP_temperature;BMP_pressure;BME280_temperature;BME280_humidity;BME280_pressure;Samples;Min_cycle;Max_cycle;Signal;HPM_P1;HPM_P2
2022/10/01 00:00:59;;;;;;;3.47;3.27;;;;;;;2.53;100.00;95932.00;6158364;23;20761;-78
2022/10/01 00:03:28;;;;;;;5.23;3.20;;;;;;;3.05;100.00;96026.75;6132444;23;20759;-77
2022/10/01 00:06:03;;;;;;;2.87;2.67;;;;;;;3.28;100.00;96030.31;6106642;23;20410;-78
2022/10/01 00:08:31;;;;;;;3.93;3.10;;;;;;;3.19;100.00;95993.63;6156564;23;20396;-78
2022/10/01 00:11:01;;;;;;;4.07;3.40;;;;;;;2.84;100.00;95954.00;6130523;23;20399;-78
2022/10/01 00:13:29;;;;;;;10.37;3.90;;;;;;;3.54;100.00;96034.84;6131083;23;20423;-77
2022/10/01 00:15:56;;;;;;;6.90;4.70;;;;;;;3.26;100.00;96030.63;6132279;23;20498;-78
2022/10/01 00:18:22;;;;;;;3.50;3.20;;;;;;;3.36;100.00;96035.69;6133121;23;20759;-78
2022/10/01 00:20:49;;;;;;;5.10;4.00;;;;;;;3.26;100.00;96002.66;6132820;23;20463;-78
2022/10/01 00:23:15;;;;;;;9.77;4.80;;;;;;;3.36;100.00;96014.78;6131831;23;20893;-77
2022/10/01 00:25:42;;;;;;;7.13;4.67;;;;;;;3.56;100.00;96032.72;6132546;23;20887;-78
2022/10/01 00:28:10;;;;;;;8.33;4.80;;;;;;;2.93;100.00;96027.19;6108316;23;20419;-78
2022/10/01 00:30:45;;;;;;;5.53;4.50;;;;;;;2.77;100.00;95999.78;6158539;23;20392;-78
2022/10/01 00:33:12;;;;;;;6.80;3.40;;;;;;;3.04;100.00;96004.31;6132915;23;20838;-78
2022/10/01 00:35:39;;;;;;;6.80;4.87;;;;;;;3.16;100.00;95989.75;6132919;23;20415;-78
2022/10/01 00:38:05;;;;;;;5.67;5.10;;;;;;;3.43;100.00;96032.69;6133327;23;20404;-78
2022/10/01 00:40:32;;;;;;;5.77;5.17;;;;;;;3.20;100.00;95982.13;6133144;23;20400;-78
2022/10/01 00:42:59;;;;;;;9.27;5.40;;;;;;;3.43;100.00;96009.16;6120896;23;20502;-77
2022/10/01 00:45:25;;;;;;;9.17;6.07;;;;;;;3.29;100.00;95979.63;6178144;23;20376;-77
2022/10/01 00:47:57;;;;;;;6.60;5.90;;;;;;;3.52;100.00;96025.75;6152585;23;20443;-78
2022/10/01 00:50:31;;;;;;;22.63;9.83;;;;;;;3.44;100.00;96003.66;6153088;23;20372;-77
2022/10/01 00:53:02;;;;;;;24.20;9.20;;;;;;;3.29;100.00;95988.25;6127699;23;20434;-77
2022/10/01 00:55:36;;;;;;;17.87;7.80;;;;;;;3.63;100.00;96026.34;6162483;23;20744;-78
2022/10/01 00:58:04;;;;;;;9.40;6.10;;;;;;;3.64;100.00;96033.13;6157313;23;20733;-77
2022/10/01 01:00:31;;;;;;;16.80;5.43;;;;;;;3.25;100.00;95966.38;6157572;23;20472;-77
2022/10/01 01:02:57;;;;;;;6.23;5.53;;;;;;;3.68;100.00;96036.69;6131086;23;20416;-77
2022/10/01 01:05:24;;;;;;;6.37;5.77;;;;;;;3.65;100.00;96013.75;6131913;23;20471;-77
2022/10/01 01:07:52;;;;;;;5.13;4.63;;;;;;;3.40;100.00;95988.84;6131345;23;20913;-77
2022/10/01 01:10:33;;;;;;;11.00;5.73;;;;;;;3.37;100.00;95992.03;6130836;23;20438;-77
2022/10/01 01:13:00;;;;;;;8.70;5.30;;;;;;;3.67;100.00;96017.63;6106893;23;20517;-77
2022/10/01 01:15:33;;;;;;;4.90;4.40;;;;;;;3.59;100.00;96022.72;6131260;23;20898;-77
2022/10/01 01:18:14;;;;;;;12.93;5.83;;;;;;;3.61;100.00;96012.78;6158514;23;20466;-77
2022/10/01 01:20:44;;;;;;;6.57;5.97;;;;;;;3.58;100.00;96008.88;6133164;23;20466;-77
2022/10/01 01:23:13;;;;;;;5.47;5.07;;;;;;;3.59;100.00;96009.66;6135892;23;20866;-77
2022/10/01 01:26:04;;;;;;;5.77;4.80;;;;;;;3.62;100.00;96009.13;6161071;23;20384;-77
2022/10/01 01:28:36;;;;;;;6.87;5.13;;;;;;;3.53;100.00;95995.94;6160829;23;21193;-78
2022/10/01 01:31:13;;;;;;;5.10;4.60;;;;;;;3.32;100.00;95971.22;6159321;23;20982;-78
2022/10/01 01:33:43;;;;;;;5.93;5.20;;;;;;;3.18;100.00;95958.13;6160136;23;20411;-78
2022/10/01 01:36:17;;;;;;;7.50;5.70;;;;;;;2.86;100.00;95944.03;6108811;23;20388;-77
2022/10/01 01:38:50;;;;;;;5.93;5.43;;;;;;;3.31;100.00;95974.88;6133235;23;20391;-78
2022/10/01 01:41:19;;;;;;;7.23;5.50;;;;;;;3.33;100.00;95986.59;6109562;23;20434;-77
2022/10/01 01:43:51;;;;;;;5.83;5.13;;;;;;;3.39;100.00;95972.41;6133255;23;20475;-78
2022/10/01 01:46:19;;;;;;;6.70;5.87;;;;;;;3.03;100.00;95927.81;6133926;23;20855;-78
2022/10/01 01:48:49;;;;;;;11.87;8.13;;;;;;;3.26;100.00;95962.69;6133915;23;20446;-77
2022/10/01 01:51:16;;;;;;;9.97;6.30;;;;;;;3.39;100.00;95977.63;6134297;23;20400;-77
2022/10/01 01:53:43;;;;;;;8.07;7.00;;;;;;;3.37;100.00;95977.13;6159682;23;20805;-77
2022/10/01 01:56:10;;;;;;;7.43;6.73;;;;;;;3.27;100.00;95953.78;6159606;23;20476;-77
2022/10/01 01:58:38;;;;;;;8.10;6.83;;;;;;;3.42;100.00;95969.19;6159288;23;20404;-77
2022/10/01 02:01:04;;;;;;;14.10;5.80;;;;;;;3.04;100.00;95894.66;6134812;23;20391;-78
2022/10/01 02:03:34;;;;;;;5.97;5.40;;;;;;;3.54;100.00;95969.50;6134828;23;20388;-78
2022/10/01 02:06:27;;;;;;;7.10;6.37;;;;;;;3.47;100.00;95968.31;6109269;23;20494;-77
2022/10/01 02:09:07;;;;;;;5.30;4.80;;;;;;;3.48;100.00;95962.84;6109566;23;20518;-77
2022/10/01 02:11:43;;;;;;;10.93;6.00;;;;;;;3.25;100.00;95945.47;6159782;23;20379;-77
2022/10/01 02:14:19;;;;;;;8.17;7.23;;;;;;;3.50;100.00;95959.91;6108172;23;20438;-78
2022/10/01 02:17:00;;;;;;;15.27;7.70;;;;;;;3.58;100.00;95963.69;6133554;23;20395;-77
2022/10/01 02:19:42;;;;;;;14.00;7.27;;;;;;;3.58;100.00;95966.31;6133315;23;20908;-77
2022/10/01 02:22:16;;;;;;;9.93;7.87;;;;;;;3.65;100.00;95969.31;6133704;23;20372;-78
2022/10/01 02:24:56;;;;;;;16.40;7.17;;;;;;;3.38;100.00;95949.94;6108623;23;20861;-77
2022/10/01 02:27:29;;;;;;;7.73;6.77;;;;;;;3.46;100.00;95972.00;6108515;23;20424;-77
2022/10/01 02:30:00;;;;;;;9.40;7.63;;;;;;;3.43;100.00;95973.34;6133744;23;20471;-78
2022/10/01 02:32:30;;;;;;;12.20;8.47;;;;;;;3.29;100.00;95971.78;6135681;23;20376;-78
2022/10/01 02:34:58;;;;;;;11.00;6.40;;;;;;;3.05;100.00;95940.59;6160548;23;20455;-78
2022/10/01 02:37:26;;;;;;;6.90;5.47;;;;;;;2.89;100.00;95927.78;6141389;23;20428;-77
2022/10/01 02:39:56;;;;;;;6.20;5.60;;;;;;;2.89;100.00;95917.34;6124877;23;20408;-77
2022/10/01 02:42:26;;;;;;;7.50;5.73;;;;;;;3.12;100.00;95920.13;6124714;23;20424;-76
2022/10/01 02:44:55;;;;;;;10.20;6.70;;;;;;;3.15;100.00;95951.63;6174838;23;20375;-77
2022/10/01 02:47:27;;;;;;;13.07;6.03;;;;;;;2.96;100.00;95917.78;6147495;23;20508;-78
2022/10/01 02:49:54;;;;;;;12.43;7.33;;;;;;;2.83;100.00;95907.28;6108134;23;20419;-78
2022/10/01 02:52:20;;;;;;;11.37;5.73;;;;;;;3.00;100.00;95953.75;6132802;23;20455;-78
2022/10/01 02:55:03;;;;;;;12.03;6.33;;;;;;;2.78;100.00;95930.84;6107338;23;20944;-78
2022/10/01 02:57:31;;;;;;;8.63;6.47;;;;;;;2.65;100.00;95901.03;6131022;23;20459;-77
2022/10/01 03:00:06;;;;;;;16.97;8.97;;;;;;;2.99;100.00;95952.19;6131055;23;20395;-77
2022/10/01 03:02:32;;;;;;;6.90;6.03;;;;;;;3.08;100.00;95953.09;6157377;23;20778;-77
2022/10/01 03:04:59;;;;;;;8.30;6.10;;;;;;;2.94;100.00;95935.56;6131552;23;20428;-77
2022/10/01 03:07:29;;;;;;;7.20;4.90;;;;;;;3.13;100.00;95953.78;6131433;23;20424;-78
2022/10/01 03:09:56;;;;;;;6.40;5.80;;;;;;;3.08;100.00;95961.72;6131007;23;20470;-78
2022/10/01 03:12:23;;;;;;;6.63;6.00;;;;;;;2.92;100.00;95927.22;6157174;23;20394;-78
2022/10/01 03:14:50;;;;;;;6.03;5.50;;;;;;;2.77;100.00;95901.38;6106996;23;20442;-78
2022/10/01 03:17:17;;;;;;;4.77;4.37;;;;;;;2.61;100.00;95873.97;6130767;23;20439;-77
2022/10/01 03:19:43;;;;;;;4.77;4.37;;;;;;;2.80;100.00;95931.34;6107648;23;20415;-77
2022/10/01 03:22:12;;;;;;;5.03;4.63;;;;;;;2.76;100.00;95905.03;6158364;23;20721;-77
2022/10/01 03:24:39;;;;;;;5.57;5.00;;;;;;;2.57;100.00;95875.63;6107978;23;20902;-77
2022/10/01 03:27:06;;;;;;;7.23;5.57;;;;;;;2.75;100.00;95911.31;6158337;23;20384;-77
2022/10/01 03:29:32;;;;;;;7.07;6.47;;;;;;;2.36;100.00;95875.16;6131801;23;20415;-77
2022/10/01 03:31:59;;;;;;;8.20;6.03;;;;;;;2.60;100.00;95903.75;6157778;23;20458;-78
2022/10/01 03:34:26;;;;;;;7.47;6.70;;;;;;;2.64;100.00;95907.31;6131242;23;20440;-77
2022/10/01 03:36:52;;;;;;;6.10;5.33;;;;;;;2.65;100.00;95903.66;6131069;23;20494;-78
2022/10/01 03:39:19;;;;;;;6.67;6.00;;;;;;;2.27;100.00;95915.97;6157783;23;20388;-77
2022/10/01 03:41:46;;;;;;;7.87;6.60;;;;;;;2.33;100.00;95930.50;6157025;23;20482;-77
2022/10/01 03:44:12;;;;;;;6.57;6.07;;;;;;;2.15;100.00;95884.34;6130521;23;20787;-77
2022/10/01 03:46:39;;;;;;;7.30;6.10;;;;;;;2.41;100.00;95916.81;6130644;23;20415;-77
2022/10/01 03:49:06;;;;;;;7.33;6.27;;;;;;;2.56;100.00;95924.41;6106136;23;20423;-78
2022/10/01 03:51:34;;;;;;;15.30;6.07;;;;;;;2.59;100.00;95913.41;6106201;23;20438;-78
2022/10/01 03:54:03;;;;;;;14.17;5.97;;;;;;;2.67;100.00;95925.00;6130836;23;20384;-77
2022/10/01 03:56:30;;;;;;;8.20;6.50;;;;;;;2.70;100.00;95918.47;6106132;23;20942;-78
2022/10/01 03:58:57;;;;;;;8.53;7.03;;;;;;;2.37;100.00;95867.03;6106619;23;20911;-77
2022/10/01 04:01:24;;;;;;;6.43;5.70;;;;;;;2.83;100.00;95904.69;6130133;23;20821;-77
2022/10/01 04:03:51;;;;;;;8.47;6.57;;;;;;;2.36;100.00;95834.19;6130435;23;20894;-77
2022/10/01 04:06:19;;;;;;;11.17;8.20;;;;;;;2.85;100.00;95898.09;6130834;23;20394;-78
2022/10/01 04:08:45;;;;;;;7.97;6.80;;;;;;;2.75;100.00;95906.09;6156555;23;20406;-78
2022/10/01 04:11:12;;;;;;;10.20;6.83;;;;;;;2.57;100.00;95875.63;6130797;23;20713;-77
2022/10/01 04:13:38;;;;;;;8.17;6.00;;;;;;;2.74;100.00;95882.91;6130830;23;20388;-77
2022/10/01 04:16:05;;;;;;;10.10;7.37;;;;;;;2.98;100.00;95891.38;6156825;23;20757;-77
2022/10/01 04:18:33;;;;;;;10.93;6.73;;;;;;;3.04;100.00;95884.97;6130682;23;20555;-77
2022/10/01 04:20:59;;;;;;;9.57;8.10;;;;;;;3.09;100.00;95897.97;6130973;23;20427;-77
2022/10/01 04:23:26;;;;;;;8.87;7.13;;;;;;;2.72;100.00;95846.66;6157547;23;20388;-77
2022/10/01 04:25:53;;;;;;;8.20;7.30;;;;;;;3.12;100.00;95894.78;6157553;23;20394;-77
2022/10/01 04:28:19;;;;;;;9.77;8.13;;;;;;;3.06;100.00;95871.63;6131649;23;20408;-77
2022/10/01 04:30:46;;;;;;;10.27;7.07;;;;;;;3.12;100.00;95889.53;6107309;23;20407;-78
2022/10/01 04:33:15;;;;;;;14.73;8.10;;;;;;;2.90;100.00;95843.19;6131455;23;20408;-77
2022/10/01 04:35:42;;;;;;;13.20;9.07;;;;;;;3.23;100.00;95892.75;6131140;23;20519;-77
2022/10/01 04:38:14;;;;;;;18.13;12.30;;;;;;;3.01;100.00;95840.41;6132155;23;20408;-77
2022/10/01 04:40:41;;;;;;;16.57;11.80;;;;;;;3.30;100.00;95885.28;6107336;23;20403;-78
2022/10/01 04:43:12;;;;;;;17.20;9.60;;;;;;;3.12;100.00;95857.44;6107685;23;20407;-77
2022/10/01 04:45:38;;;;;;;12.90;9.27;;;;;;;3.31;100.00;95891.28;6132089;23;20364;-77
2022/10/01 04:48:05;;;;;;;19.57;9.90;;;;;;;3.02;100.00;95850.56;6118865;23;20423;-77
2022/10/01 04:50:32;;;;;;;15.30;11.10;;;;;;;3.30;100.00;95887.13;6146218;23;20436;-78
2022/10/01 04:52:59;;;;;;;21.40;10.50;;;;;;;3.21;100.00;95874.75;6172991;23;20419;-77
2022/10/01 04:55:25;;;;;;;14.30;10.07;;;;;;;3.28;100.00;95887.41;6147326;23;20510;-77
2022/10/01 04:57:52;;;;;;;18.80;11.60;;;;;;;3.26;100.00;95884.34;6146881;23;20412;-77
2022/10/01 05:00:23;;;;;;;24.97;12.70;;;;;;;3.05;100.00;95857.03;6139431;23;20886;-77
2022/10/01 05:02:50;;;;;;;20.87;12.40;;;;;;;3.07;100.00;95860.91;6108078;23;20407;-77
2022/10/01 05:05:19;;;;;;;17.27;11.37;;;;;;;3.16;100.00;95874.06;6131791;23;20403;-78
2022/10/01 05:07:46;;;;;;;15.93;11.93;;;;;;;3.15;100.00;95859.47;6157669;23;20423;-78
2022/10/01 05:10:16;;;;;;;15.13;10.70;;;;;;;3.32;100.00;95877.94;6131548;23;20399;-78
2022/10/01 05:12:45;;;;;;;15.97;12.27;;;;;;;3.05;100.00;95836.13;6158173;23;20376;-77
2022/10/01 05:15:12;;;;;;;18.07;12.57;;;;;;;3.36;100.00;95886.00;6131512;23;20438;-77
2022/10/01 05:17:39;;;;;;;20.67;13.27;;;;;;;2.94;100.00;95832.97;6131489;23;20420;-78
2022/10/01 05:20:08;;;;;;;17.73;12.10;;;;;;;2.74;100.00;95841.16;6132456;23;20365;-77
2022/10/01 05:22:35;;;;;;;13.10;10.70;;;;;;;2.55;100.00;95823.72;6131792;23;20410;-77
2022/10/01 05:25:02;;;;;;;13.27;10.00;;;;;;;2.75;100.00;95842.69;6131676;23;20400;-77
2022/10/01 05:27:36;;;;;;;19.03;12.23;;;;;;;2.96;100.00;95859.56;6107790;23;20502;-77
2022/10/01 05:30:04;;;;;;;13.57;10.90;;;;;;;2.95;100.00;95847.56;6131529;23;20443;-77
2022/10/01 05:32:31;;;;;;;14.47;10.83;;;;;;;3.24;100.00;95902.91;6132077;23;20427;-77
2022/10/01 05:34:58;;;;;;;14.80;12.10;;;;;;;3.06;100.00;95888.06;6131689;23;20500;-77
2022/10/01 05:37:24;;;;;;;9.90;8.90;;;;;;;3.08;100.00;95883.34;6158776;23;20404;-77
2022/10/01 05:39:51;;;;;;;13.90;10.50;;;;;;;3.23;100.00;95903.19;6133370;23;20419;-77
2022/10/01 05:42:17;;;;;;;9.90;8.90;;;;;;;3.26;100.00;95894.78;6158663;23;20395;-78
2022/10/01 05:44:48;;;;;;;9.93;8.93;;;;;;;3.22;100.00;95871.09;6131796;23;20396;-77
2022/10/01 05:47:16;;;;;;;10.07;9.07;;;;;;;3.15;100.00;95865.44;6132200;23;20513;-77
2022/10/01 05:49:43;;;;;;;9.73;8.63;;;;;;;3.21;100.00;95866.16;6132669;23;20404;-77
2022/10/01 05:52:11;;;;;;;12.57;9.33;;;;;;;3.21;100.00;95863.53;6108414;23;20404;-77
2022/10/01 05:54:38;;;;;;;12.20;8.90;;;;;;;3.47;100.00;95910.84;6161750;23;20867;-77
2022/10/01 05:57:06;;;;;;;12.70;11.40;;;;;;;3.64;100.00;95921.50;6111124;23;20400;-77
2022/10/01 05:59:33;;;;;;;11.10;9.37;;;;;;;3.60;100.00;95906.66;6134837;23;20411;-77
2022/10/01 06:02:00;;;;;;;11.27;9.67;;;;;;;3.40;100.00;95876.50;6133176;23;20403;-77
2022/10/01 06:04:34;;;;;;;9.73;8.83;;;;;;;3.43;100.00;95886.34;6158984;23;20372;-77
2022/10/01 06:07:06;;;;;;;13.83;10.93;;;;;;;3.37;100.00;95880.47;6132676;23;20482;-77
2022/10/01 06:09:33;;;;;;;11.30;10.23;;;;;;;3.61;100.00;95895.94;6108922;23;21131;-78
2022/10/01 06:12:00;;;;;;;11.03;10.03;;;;;;;3.54;100.00;95877.25;6133235;23;20490;-77
2022/10/01 06:14:26;;;;;;;19.37;17.90;;;;;;;3.59;100.00;95887.59;6160788;23;20384;-77
2022/10/01 06:16:53;;;;;;;13.83;12.70;;;;;;;3.84;100.00;95915.06;6109304;23;20440;-77
2022/10/01 06:19:20;;;;;;;17.27;12.97;;;;;;;3.95;100.00;95908.56;6109525;23;20924;-77
2022/10/01 06:21:47;;;;;;;12.83;11.50;;;;;;;3.51;100.00;95838.66;6159746;23;20380;-77
2022/10/01 06:24:14;;;;;;;18.40;12.50;;;;;;;3.63;100.00;95846.75;6109154;23;20440;-77
2022/10/01 06:26:40;;;;;;;16.53;12.30;;;;;;;3.43;100.00;95805.34;6108825;23;20495;-78
2022/10/01 06:29:07;;;;;;;11.80;8.80;;;;;;;3.61;100.00;95835.06;6159198;23;21126;-77
2022/10/01 06:31:33;;;;;;;9.40;8.57;;;;;;;3.97;100.00;95866.44;6133208;23;20735;-78
2022/10/01 06:34:00;;;;;;;13.07;8.23;;;;;;;4.21;100.00;95882.63;6159236;23;20434;-77
2022/10/01 06:36:27;;;;;;;7.50;6.70;;;;;;;3.74;100.00;95808.88;6133125;23;20757;-77
2022/10/01 06:38:54;;;;;;;12.60;8.50;;;;;;;3.94;100.00;95833.81;6133056;23;20408;-77
2022/10/01 06:41:20;;;;;;;8.57;7.67;;;;;;;4.34;100.00;95871.34;6132749;23;20388;-77
2022/10/01 06:43:48;;;;;;;10.93;8.40;;;;;;;4.32;100.00;95857.03;6132994;23;20729;-78
2022/10/01 06:46:15;;;;;;;8.50;7.60;;;;;;;4.31;100.00;95840.56;6134974;23;20467;-78
2022/10/01 06:48:41;;;;;;;12.07;9.77;;;;;;;4.50;100.00;95853.44;6146151;23;20420;-78
2022/10/01 06:51:08;;;;;;;10.47;8.70;;;;;;;4.72;100.00;95869.13;6173118;23;20431;-76
2022/10/01 06:53:35;;;;;;;9.23;8.20;;;;;;;4.55;100.00;95840.25;6147571;23;20476;-77
2022/10/01 06:56:06;;;;;;;9.60;7.90;;;;;;;4.85;100.00;95861.50;6147118;23;20499;-78
2022/10/01 06:58:33;;;;;;;10.20;8.77;;;;;;;4.75;100.00;95829.25;6173436;23;20396;-78
2022/10/01 07:01:01;;;;;;;9.43;8.53;;;;;;;5.03;100.00;95855.25;6132144;23;20392;-78
2022/10/01 07:03:29;;;;;;;10.07;8.37;;;;;;;5.12;100.00;95860.56;6157953;23;20388;-77
2022/10/01 07:06:04;;;;;;;11.90;9.30;;;;;;;5.04;100.00;95841.09;6131294;23;20775;-77
2022/10/01 07:08:32;;;;;;;10.10;9.00;;;;;;;5.21;100.00;95862.13;6158469;23;20431;-78
2022/10/01 07:11:02;;;;;;;14.93;10.33;;;;;;;4.91;100.00;95810.53;6132407;23;20481;-78
2022/10/01 07:13:29;;;;;;;11.17;9.20;;;;;;;5.27;100.00;95854.91;6108422;23;20438;-78
2022/10/01 07:15:56;;;;;;;11.53;9.40;;;;;;;5.08;100.00;95826.34;6132492;23;20459;-78
2022/10/01 07:18:22;;;;;;;12.47;10.07;;;;;;;5.04;100.00;95809.66;6132838;23;20423;-78
2022/10/01 07:20:49;;;;;;;15.33;10.70;;;;;;;5.34;100.00;95852.59;6132352;23;20399;-78
2022/10/01 07:23:16;;;;;;;12.07;10.40;;;;;;;5.36;100.00;95847.06;6158084;23;20825;-78
2022/10/01 07:25:43;;;;;;;11.77;9.90;;;;;;;5.54;100.00;95843.41;6131279;23;20395;-78
2022/10/01 07:28:17;;;;;;;12.43;11.13;;;;;;;5.54;100.00;95822.44;6107155;23;21229;-78
2022/10/01 07:30:58;;;;;;;14.47;11.50;;;;;;;5.82;100.00;95846.53;6158009;23;20368;-78
2022/10/01 07:33:25;;;;;;;13.07;10.30;;;;;;;5.59;100.00;95833.53;6106697;23;20412;-77
2022/10/01 07:35:52;;;;;;;15.10;12.17;;;;;;;5.59;100.00;95843.25;6107304;23;20926;-78
2022/10/01 07:38:19;;;;;;;12.60;9.90;;;;;;;5.59;100.00;95838.00;6131451;23;20427;-78
2022/10/01 07:40:50;;;;;;;11.23;9.53;;;;;;;5.71;100.00;95861.03;6158519;23;20412;-78
2022/10/01 07:43:17;;;;;;;14.57;10.73;;;;;;;5.58;100.00;95831.22;6131887;23;20411;-77
2022/10/01 07:45:45;;;;;;;15.30;11.47;;;;;;;5.96;100.00;95859.53;6158335;23;20392;-78
2022/10/01 07:48:15;;;;;;;12.50;11.30;;;;;;;5.67;100.00;95811.03;6131954;23;20495;-78
2022/10/01 07:50:46;;;;;;;17.60;12.43;;;;;;;5.93;100.00;95839.94;6159440;23;20475;-77
2022/10/01 07:53:12;;;;;;;16.57;9.07;;;;;;;6.13;100.00;95846.44;6156472;23;20714;-77
2022/10/01 07:55:39;;;;;;;13.37;10.23;;;;;;;6.25;100.00;95843.19;6105337;23;20432;-78
2022/10/01 07:58:06;;;;;;;11.60;10.50;;;;;;;6.11;100.00;95838.88;6129451;23;20428;-77
2022/10/01 08:00:33;;;;;;;11.17;10.00;;;;;;;6.32;100.00;95854.78;6130886;23;20392;-77
2022/10/01 08:03:00;;;;;;;12.90;11.20;;;;;;;6.03;100.00;95792.44;6126843;23;20396;-77
2022/10/01 08:05:30;;;;;;;12.63;11.10;;;;;;;6.35;100.00;95842.88;6130362;23;20396;-77
2022/10/01 08:07:59;;;;;;;10.47;9.10;;;;;;;6.28;100.00;95803.97;6130699;23;20420;-78
2022/10/01 08:10:26;;;;;;;11.33;10.23;;;;;;;6.59;100.00;95840.53;6158305;23;20439;-77
2022/10/01 08:13:00;;;;;;;13.60;11.00;;;;;;;6.65;100.00;95847.16;6131641;23;20387;-78
2022/10/01 08:15:28;;;;;;;15.43;10.90;;;;;;;6.46;100.00;95799.47;6107918;23;20431;-78
2022/10/01 08:17:54;;;;;;;16.10;11.27;;;;;;;6.63;100.00;95817.03;6131837;23;20431;-78
2022/10/01 08:20:21;;;;;;;16.23;13.40;;;;;;;6.90;100.00;95840.28;6133110;23;20494;-78
2022/10/01 08:22:47;;;;;;;13.70;11.80;;;;;;;6.95;100.00;95821.75;6107136;23;20406;-78
2022/10/01 08:25:14;;;;;;;13.83;12.40;;;;;;;7.15;100.00;95836.03;6132715;23;20408;-77
2022/10/01 08:27:41;;;;;;;14.30;11.10;;;;;;;7.36;100.00;95839.50;6132132;23;20854;-78
2022/10/01 08:30:08;;;;;;;16.17;11.77;;;;;;;7.07;100.00;95779.00;6130866;23;20518;-78
2022/10/01 08:32:34;;;;;;;12.33;10.40;;;;;;;7.41;100.00;95828.78;6108090;23;20498;-78
2022/10/01 08:35:03;;;;;;;14.80;12.97;;;;;;;7.37;100.00;95795.56;6134585;23;20388;-78
2022/10/01 08:37:29;;;;;;;15.20;13.27;;;;;;;7.36;100.00;95783.50;6134487;23;20559;-78
2022/10/01 08:39:56;;;;;;;12.57;11.17;;;;;;;7.60;100.00;95827.59;6134147;23;20765;-78
2022/10/01 08:42:42;;;;;;;12.20;10.93;;;;;;;7.71;100.00;95841.94;6109507;23;20446;-78
2022/10/01 08:45:22;;;;;;;13.23;11.50;;;;;;;7.46;100.00;95796.28;6108949;23;20471;-78
2022/10/01 08:48:14;;;;;;;12.10;10.50;;;;;;;7.88;100.00;95846.31;6159589;23;20411;-78
2022/10/01 08:50:56;;;;;;;13.13;11.60;;;;;;;7.87;100.00;95837.63;6138826;23;20740;-78
2022/10/01 08:53:35;;;;;;;11.97;10.40;;;;;;;7.61;100.00;95798.38;6146914;23;20372;-78
2022/10/01 08:56:03;;;;;;;12.50;10.73;;;;;;;7.96;100.00;95846.25;6147865;23;20479;-77
2022/10/01 08:58:57;;;;;;;11.47;10.27;;;;;;;8.04;100.00;95834.13;6146695;23;20504;-77
2022/10/01 09:01:25;;;;;;;93.40;61.43;;;;;;;7.87;100.00;95792.91;6171187;23;20466;-77
2022/10/01 09:03:52;;;;;;;86.80;57.43;;;;;;;8.12;100.00;95835.91;6118417;23;20407;-78
2022/10/01 09:06:27;;;;;;;29.17;19.57;;;;;;;8.17;100.00;95825.19;6134307;23;20439;-78
2022/10/01 09:09:01;;;;;;;20.00;15.57;;;;;;;8.34;100.00;95858.53;6133877;23;20459;-77
2022/10/01 09:11:46;;;;;;;18.97;16.07;;;;;;;8.24;100.00;95851.75;6134047;23;20404;-78
2022/10/01 09:14:35;;;;;;;15.20;13.60;;;;;;;8.35;100.00;95857.44;6107553;23;20395;-78
2022/10/01 09:17:20;;;;;;;11.33;10.20;;;;;;;8.42;100.00;95855.06;6157979;23;20861;-78
2022/10/01 09:20:00;;;;;;;15.23;11.97;;;;;;;8.41;100.00;95855.38;6131280;23;20418;-78
2022/10/01 09:22:37;;;;;;;32.47;21.93;;;;;;;8.37;100.00;95844.72;6157956;23;20459;-78
2022/10/01 09:25:24;;;;;;;17.90;13.50;;;;;;;8.43;100.00;95845.31;6107279;23;20800;-77
2022/10/01 09:27:59;;;;;;;9.33;8.43;;;;;;;8.10;100.00;95811.00;6130680;23;20416;-78
2022/10/01 09:30:28;;;;;;;9.97;9.03;;;;;;;8.35;100.00;95843.50;6158426;23;20372;-78
2022/10/01 09:33:02;;;;;;;22.40;8.97;;;;;;;8.15;100.00;95801.06;6156634;23;20483;-77
2022/10/01 09:35:40;;;;;;;11.10;8.93;;;;;;;8.40;100.00;95832.75;6106805;23;20503;-77
2022/10/01 09:38:33;;;;;;;10.97;8.80;;;;;;;8.35;100.00;95807.41;6156617;23;20443;-78
2022/10/01 09:41:00;;;;;;;12.13;8.90;;;;;;;8.28;100.00;95792.13;6133031;23;20372;-77
2022/10/01 09:43:29;;;;;;;8.80;7.90;;;;;;;8.43;100.00;95824.22;6131424;23;20515;-77
2022/10/01 09:45:57;;;;;;;11.70;9.23;;;;;;;8.37;100.00;95813.13;6131878;23;20404;-77
2022/10/01 09:48:30;;;;;;;9.23;8.30;;;;;;;8.36;100.00;95798.41;6131455;23;20474;-78
2022/10/01 09:51:05;;;;;;;9.77;8.77;;;;;;;8.28;100.00;95800.00;6132866;23;20409;-78
2022/10/01 09:54:02;;;;;;;8.53;7.70;;;;;;;8.42;100.00;95796.34;6130972;23;20438;-77
2022/10/01 09:56:34;;;;;;;8.47;7.57;;;;;;;8.18;100.00;95776.72;6156308;23;20808;-77
2022/10/01 09:59:07;;;;;;;22.27;16.50;;;;;;;8.11;100.00;95757.25;6129971;23;20914;-77
2022/10/01 10:01:36;;;;;;;17.80;11.60;;;;;;;8.30;100.00;95787.28;6130321;23;20938;-77
2022/10/01 10:04:04;;;;;;;11.70;8.67;;;;;;;8.11;100.00;95746.72;6108332;23;20815;-77
2022/10/01 10:06:30;;;;;;;7.90;7.20;;;;;;;8.34;100.00;95782.16;6132963;23;20424;-78
2022/10/01 10:09:00;;;;;;;7.33;6.63;;;;;;;8.02;100.00;95752.09;6130085;23;20918;-77
2022/10/01 10:11:30;;;;;;;7.53;6.83;;;;;;;8.23;100.00;95773.09;6105737;23;20404;-78
2022/10/01 10:14:02;;;;;;;7.47;6.63;;;;;;;8.09;100.00;95759.44;6157563;23;20369;-77
2022/10/01 10:16:32;;;;;;;8.03;6.90;;;;;;;8.19;100.00;95756.41;6158575;23;20580;-78
2022/10/01 10:19:04;;;;;;;9.43;8.50;;;;;;;8.10;100.00;95759.13;6132302;23;20439;-77
2022/10/01 10:21:36;;;;;;;8.57;7.67;;;;;;;7.99;100.00;95732.41;6133268;23;20461;-77
2022/10/01 10:24:06;;;;;;;9.00;7.47;;;;;;;8.07;100.00;95728.19;6109121;23;20435;-77
2022/10/01 10:26:41;;;;;;;7.23;6.53;;;;;;;8.02;100.00;95735.53;6108792;23;20399;-78
2022/10/01 10:29:25;;;;;;;7.10;6.50;;;;;;;8.11;100.00;95746.72;6132879;23;20431;-77
2022/10/01 10:31:54;;;;;;;6.07;5.47;;;;;;;7.93;100.00;95725.81;6132120;23;20365;-78
2022/10/01 10:34:30;;;;;;;6.40;5.53;;;;;;;8.02;100.00;95720.50;6157514;23;20384;-77
2022/10/01 10:36:59;;;;;;;8.13;7.33;;;;;;;7.97;100.00;95725.94;6157326;23;20462;-78
2022/10/01 10:39:29;;;;;;;7.53;6.83;;;;;;;8.00;100.00;95725.28;6131511;23;20384;-77
2022/10/01 10:41:58;;;;;;;5.63;5.10;;;;;;;8.03;100.00;95731.78;6130454;23;20411;-77
2022/10/01 10:44:30;;;;;;;6.93;5.60;;;;;;;8.08;100.00;95740.25;6105656;23;20403;-77
2022/10/01 10:47:04;;;;;;;6.10;5.50;;;;;;;8.06;100.00;95742.44;6156574;23;20415;-77
2022/10/01 10:49:46;;;;;;;8.60;6.67;;;;;;;7.77;100.00;95693.31;6135024;23;20396;-77
2022/10/01 10:52:27;;;;;;;6.93;6.23;;;;;;;8.04;100.00;95734.09;6135222;23;20451;-77
2022/10/01 10:54:56;;;;;;;6.00;5.50;;;;;;;7.99;100.00;95736.91;6161994;23;20369;-77
2022/10/01 10:57:28;;;;;;;8.90;6.80;;;;;;;7.66;100.00;95685.03;6159057;23;20427;-77
2022/10/01 11:00:11;;;;;;;7.10;6.00;;;;;;;7.91;100.00;95716.72;6110132;23;20400;-77
2022/10/01 11:02:40;;;;;;;6.13;5.63;;;;;;;7.97;100.00;95724.06;6155990;23;20466;-77
2022/10/01 11:05:18;;;;;;;6.13;5.50;;;;;;;7.78;100.00;95689.59;6154949;23;20419;-77
2022/10/01 11:07:47;;;;;;;8.80;7.63;;;;;;;7.91;100.00;95717.50;6128699;23;20515;-77
2022/10/01 11:10:45;;;;;;;7.50;5.87;;;;;;;7.91;100.00;95716.72;6153855;23;20488;-77
2022/10/01 11:13:31;;;;;;;6.83;6.17;;;;;;;8.04;100.00;95715.66;6104133;23;20402;-77
2022/10/01 11:16:16;;;;;;;7.60;5.60;;;;;;;8.08;100.00;95719.19;6127180;23;20495;-77
2022/10/01 11:19:01;;;;;;;7.17;6.50;;;;;;;7.77;100.00;95676.75;6126330;23;20435;-77
2022/10/01 11:21:40;;;;;;;6.60;5.97;;;;;;;8.07;100.00;95712.38;6103524;23;20518;-77
2022/10/01 11:24:18;;;;;;;8.90;8.10;;;;;;;7.85;100.00;95668.75;6152682;23;20749;-77
2022/10/01 11:26:51;;;;;;;6.73;5.70;;;;;;;8.12;100.00;95714.03;6128651;23;20415;-77
2022/10/01 11:29:57;;;;;;;6.40;5.60;;;;;;;8.13;100.00;95713.69;6133097;23;20392;-77
2022/10/01 11:32:32;;;;;;;4.90;4.53;;;;;;;7.92;100.00;95695.34;6072692;23;20419;-77
2022/10/01 11:35:11;;;;;;;7.47;6.70;;;;;;;8.03;100.00;95713.38;6106220;23;20470;-77
2022/10/01 11:38:17;;;;;;;6.80;5.90;;;;;;;7.98;100.00;95693.25;6105898;23;20455;-77
2022/10/01 11:40:52;;;;;;;5.43;4.20;;;;;;;7.81;100.00;95688.94;6112762;23;20435;-77
2022/10/01 11:43:51;;;;;;;3.93;3.63;;;;;;;7.99;100.00;95713.22;6105374;23;20403;-77